Ida, MI (48140)

10:51 AM EST on February 06, 2016 (GMT -0500)
Jackman near Morocco, Ida, MI | | Change Station
CLOSE
Current Station
Personal Weather Station
Location: Michigan, MI
Elevation: 643 ft
Nearby Weather Stations

Elev 643 ft 41.84 °N, 83.59 °W | Updated 31 seconds ago

Mostly Cloudy
Mostly Cloudy
37.2 °F
Feels Like 34 °F
N
3.7
Wind Variable Wind from South
Gusts 7.8 mph

Today
High -- | Low -- °F
--% Chance of Precip.
Yesterday
High -- | Low -- °F
Precip. -- in
Pressure 30.28 in
Visibility 7.0 miles
Clouds Clear
Windchill 34 °F
Dew Point 28 °F
Humidity 68%
Rainfall 0.00 in
Snow Depth Not available.
7:41 AM 5:55 PM
Waning Crescent, 5% visible
METAR KTTF 061536Z AUTO 23006KT 7SM CLR 00/M04 A3028 RMK AO2 T00001042
Pressure 30.28 in
Visibility 7.0 miles
Clouds Clear
Windchill 34 °F
Dew Point 28 °F
Humidity 68%
Rainfall 0.00 in
Snow Depth Not available.
7:41 AM 5:55 PM
Waning Crescent, 5% visible
METAR KTTF 061536Z AUTO 23006KT 7SM CLR 00/M04 A3028 RMK AO2 T00001042

10-Day Weather Forecast

Almanac

Astronomy

Feb. 06, 2016 Rise Set
Actual Time
Civil Twilight
Nautical Twilight
Astronomical Twilight
Moon
Length of Visible Light
Length of Day
Tomorrow will be .
, % of the Moon is Illuminated

Today's Extremes

State Highs State Lows

Community

WunderPhotos

Upload Photos

1,890,987 photos uploaded!

WunderBlog® & News

Nearby

Air Quality

  Air Quality AQ Index Pollutant
Not available.

Snow Depth

Station Depth Elevation

Earthquake Activity

City Distance Mag. Time & Date
Minimum magnitude displayed is 2.5.

Coastal Water Temperatures

Place Temperature

Stations

Nearby Weather Stations

Station Location Temp. Windchill Dew Point Humidity Wind Precip. Elev Updated Type
                   

Watches & Warnings

There are currently no watches in effect.